Aviation Forecast PDF Print E-mail

 
met_logo

NATIONAL METEOROLOGICAL SERVICE OF BELIZE

Area Forecast for the Country of Belize


For the period from:

1200 24 AUGUST 2016

to

2400 24 AUGUST 2016

All Heights in the forecast are above sea level. PS= Positive, MS= Minus. All times are UTC.


A.

SPECIAL FEATURES of the METEOROLOGICAL SITUATION

LIGHT AND RELATIVELY DRY NORTHEASTERLY AIRFLOW PREVAILING...

B.

HEIGHT (Ft)

WIND (True Degrees and Knots)

TEMPERATURE (°C)

Surface

VRB05 BECMG 06007 AFTER 1600

  

PS32-34

2,000

06010

PS23

5,000

06015

PS18

10,000

07020

PS10

C.

CLOUDS (Amount, Type, Ceiling and Top(optional))

 

 FEW CB BASES 1500FT TOPS 30000FT

 SCT CU BASES 2000FT TOPS 8000FT

 


D.

SURFACE VISIBILITY:  25KM . 3-5KM IN TSRA / SHRA . 500M IN FOG / HILL FOG .


E.

WEATHER:  PARTLY CLOUDY . ISOLATED SHOWERS AND ISOLATED THUNDERSTORMS . FOG PATCHES INLAND UNTIL 1500 . HILL FOG .


Remarks, Warnings, Turbulence

Barometric Changes

LOW CLOUDS COVERING HILLS;  MOD TURB IN CB

DIURNAL(FALLING)

G.

OUTLOOK:

TO 1200 25 AUGUST -

SIMILAR

H. 

TAF  MZBZ

241045Z 2412/2512 30003KT 9999 SCT022 PROB30 2412/2414 2000 BR BECMG 2415/2417 06007KT BECMG 2508/2509 28005KT=

I.

Meteorological Office:

BELIZE

Issued at:

1130 24 AUGUST 2016

Forecaster:

RUDON